createdAt,value
2019-04-07T00:00:48.647Z,100839.18
2019-04-07T00:03:53.197Z,100837.45
2019-04-07T00:06:57.631Z,100838.72
2019-04-07T00:10:01.805Z,100837.80
2019-04-07T00:13:05.794Z,100843.36
2019-04-07T00:16:09.841Z,100840.30
2019-04-07T00:19:13.734Z,100838.62
2019-04-07T00:22:17.534Z,100834.34
2019-04-07T00:25:21.396Z,100834.22
2019-04-07T00:28:25.218Z,100834.59
2019-04-07T00:31:29.140Z,100831.47
2019-04-07T00:34:33.014Z,100834.58
2019-04-07T00:37:37.360Z,100827.56
2019-04-07T00:40:41.302Z,100834.81
2019-04-07T00:43:45.113Z,100833.56
2019-04-07T00:46:48.941Z,100837.45
2019-04-07T00:49:52.835Z,100827.84
2019-04-07T00:52:56.734Z,100833.33
2019-04-07T00:56:00.526Z,100827.98
2019-04-07T00:59:04.432Z,100828.57
2019-04-07T01:02:08.229Z,100829.47
2019-04-07T01:05:12.711Z,100829.02
2019-04-07T01:08:17.166Z,100825.83
2019-04-07T01:11:21.604Z,100827.25
2019-04-07T01:14:25.599Z,100830.63
2019-04-07T01:17:30.275Z,100826.00
2019-04-07T01:20:34.052Z,100823.11
2019-04-07T01:23:38.001Z,100828.77
2019-04-07T01:26:42.125Z,100833.86
2019-04-07T01:29:46.352Z,100837.23
2019-04-07T01:32:50.967Z,100839.04
2019-04-07T01:35:54.974Z,100833.94
2019-04-07T01:38:58.776Z,100836.63
2019-04-07T01:42:11.831Z,100837.64
2019-04-07T01:45:34.358Z,100832.38
2019-04-07T01:48:49.788Z,100836.07
2019-04-07T01:52:13.002Z,100825.56
2019-04-07T01:55:52.067Z,100824.26
2019-04-07T01:59:27.151Z,100824.00
2019-04-07T02:02:39.210Z,100817.50
2019-04-07T02:06:08.061Z,100820.88
2019-04-07T02:09:35.910Z,100824.20
2019-04-07T02:13:08.482Z,100816.87
2019-04-07T02:16:20.784Z,100815.76
2019-04-07T02:19:31.881Z,100816.70
2019-04-07T02:22:49.791Z,100815.39
2019-04-07T02:26:00.157Z,100814.59
2019-04-07T02:29:29.977Z,100814.75
2019-04-07T02:32:42.189Z,100817.45
2019-04-07T02:35:54.212Z,100811.26
2019-04-07T02:39:11.159Z,100813.07
2019-04-07T02:42:25.090Z,100814.59
2019-04-07T02:45:43.406Z,100809.58
2019-04-07T02:48:52.424Z,100808.46
2019-04-07T02:52:18.532Z,100807.58
2019-04-07T02:55:31.097Z,100809.94
2019-04-07T02:58:47.758Z,100810.37
2019-04-07T03:01:59.898Z,100809.57
2019-04-07T03:05:10.258Z,100804.86
2019-04-07T03:08:30.086Z,100806.61
2019-04-07T03:11:40.504Z,100797.28
2019-04-07T03:14:58.743Z,100794.06
2019-04-07T03:18:34.414Z,100793.21
2019-04-07T03:21:46.855Z,100794.16
2019-04-07T03:25:13.261Z,100793.16
2019-04-07T03:28:48.257Z,100799.75
2019-04-07T03:32:06.238Z,100802.17
2019-04-07T03:35:13.208Z,100800.91
2019-04-07T03:38:36.861Z,100810.05
2019-04-07T03:41:59.179Z,100803.77
2019-04-07T03:45:20.334Z,100802.92
2019-04-07T03:48:29.082Z,100801.23
2019-04-07T03:52:07.124Z,100806.66
2019-04-07T03:55:17.247Z,100802.98
2019-04-07T03:58:39.746Z,100810.45
2019-04-07T04:01:57.321Z,100808.15
2019-04-07T04:05:19.080Z,100811.08
2019-04-07T04:08:41.930Z,100819.98
2019-04-07T04:11:53.728Z,100821.81
2019-04-07T04:15:01.728Z,100822.25
2019-04-07T04:18:05.831Z,100822.62
2019-04-07T04:21:09.657Z,100824.37
2019-04-07T04:24:14.368Z,100815.32
2019-04-07T04:27:18.259Z,100817.07
2019-04-07T04:30:22.316Z,100815.86
2019-04-07T04:33:26.069Z,100815.37
2019-04-07T04:36:29.932Z,100813.77
2019-04-07T04:39:33.767Z,100815.56
2019-04-07T04:42:37.715Z,100809.09
2019-04-07T04:45:41.737Z,100818.20
2019-04-07T04:48:45.494Z,100820.55
2019-04-07T04:51:50.089Z,100820.30
2019-04-07T04:54:54.881Z,100819.65
2019-04-07T04:57:58.985Z,100824.17
2019-04-07T05:01:03.092Z,100826.16
2019-04-07T05:04:07.495Z,100829.86
2019-04-07T05:07:11.409Z,100833.34
2019-04-07T05:10:15.429Z,100831.52
2019-04-07T05:13:19.867Z,100836.33
2019-04-07T05:16:24.058Z,100844.41
2019-04-07T05:19:28.282Z,100846.15
2019-04-07T05:22:32.187Z,100853.63
2019-04-07T05:25:36.202Z,100854.23
2019-04-07T05:28:40.595Z,100854.95
2019-04-07T05:31:44.808Z,100854.66
2019-04-07T05:34:48.888Z,100857.95
2019-04-07T05:38:01.797Z,100858.67
2019-04-07T05:40:58.659Z,100865.88
2019-04-07T05:44:02.619Z,100868.61
2019-04-07T05:47:07.076Z,100872.05
2019-04-07T05:50:11.265Z,100872.39
2019-04-07T05:53:15.853Z,100868.80
2019-04-07T05:56:19.860Z,100876.34
2019-04-07T05:59:23.768Z,100876.20
2019-04-07T06:02:31.384Z,100878.75
2019-04-07T06:05:33.493Z,100874.63
2019-04-07T06:08:39.905Z,100875.48
2019-04-07T06:11:43.209Z,100876.06
2019-04-07T06:14:47.673Z,100878.71
2019-04-07T06:17:52.190Z,100878.84
2019-04-07T06:24:31.653Z,100885.83
2019-04-07T06:27:33.582Z,100887.14
2019-04-07T06:30:37.959Z,100892.41
2019-04-07T06:33:41.890Z,100889.66
2019-04-07T06:36:48.373Z,100885.94
2019-04-07T06:39:51.664Z,100892.47
2019-04-07T06:42:55.789Z,100888.37
2019-04-07T06:46:08.893Z,100891.80
2019-04-07T06:49:18.846Z,100883.48
2019-04-07T06:52:34.615Z,100881.65
2019-04-07T06:55:59.122Z,100879.30
2019-04-07T06:59:23.976Z,100881.80
2019-04-07T07:02:44.665Z,100877.98
2019-04-07T07:06:08.549Z,100880.41
2019-04-07T07:09:25.836Z,100881.56
2019-04-07T07:12:38.700Z,100888.33
2019-04-07T07:16:16.037Z,100888.57
2019-04-07T07:19:39.244Z,100886.16
2019-04-07T07:22:47.886Z,100885.87
2019-04-07T07:25:52.038Z,100892.16
2019-04-07T07:28:56.060Z,100889.27
2019-04-07T07:32:03.658Z,100889.47
2019-04-07T07:35:06.336Z,100890.48
2019-04-07T07:38:10.160Z,100889.23
2019-04-07T07:41:14.130Z,100893.84
2019-04-07T07:44:18.787Z,100894.09
2019-04-07T07:47:23.048Z,100892.30
2019-04-07T07:50:28.384Z,100897.62
2019-04-07T07:53:32.924Z,100901.11
2019-04-07T07:56:36.883Z,100898.63
2019-04-07T07:59:40.712Z,100889.81
2019-04-07T08:02:49.099Z,100899.02
2019-04-07T08:05:50.225Z,100899.49
2019-04-07T08:09:05.798Z,100895.19
2019-04-07T08:12:02.430Z,100892.48
2019-04-07T08:15:05.940Z,100895.18
2019-04-07T08:18:09.912Z,100893.58
2019-04-07T08:21:16.534Z,100902.47
2019-04-07T08:24:19.336Z,100895.02
2019-04-07T08:27:23.950Z,100888.27
2019-04-07T08:30:28.650Z,100892.30
2019-04-07T08:33:33.179Z,100902.98
2019-04-07T08:36:37.149Z,100897.69
2019-04-07T08:39:40.985Z,100899.49
2019-04-07T08:42:48.265Z,100897.75
2019-04-07T08:45:50.523Z,100901.58
2019-04-07T08:49:01.680Z,100901.91
2019-04-07T08:52:09.792Z,100895.66
2019-04-07T08:55:11.969Z,100903.78
2019-04-07T08:58:25.136Z,100900.27
2019-04-07T09:01:22.049Z,100906.19
2019-04-07T09:04:26.581Z,100903.69
2019-04-07T09:07:31.019Z,100909.39
2019-04-07T09:10:44.159Z,100908.65
2019-04-07T09:13:55.834Z,100911.98
2019-04-07T09:17:28.142Z,100913.17
2019-04-07T09:20:43.589Z,100914.34
2019-04-07T09:24:03.638Z,100911.39
2019-04-07T09:27:19.502Z,100911.91
2019-04-07T09:30:36.811Z,100914.48
2019-04-07T09:34:03.035Z,100908.78
2019-04-07T09:37:32.376Z,100922.90
2019-04-07T09:40:58.424Z,100920.08
2019-04-07T09:44:20.984Z,100918.90
2019-04-07T09:47:41.299Z,100924.09
2019-04-07T09:51:06.961Z,100924.44
2019-04-07T09:54:15.025Z,100920.80
2019-04-07T09:57:39.818Z,100924.77
2019-04-07T10:01:09.095Z,100927.59
2019-04-07T10:04:42.603Z,100921.08
2019-04-07T10:08:12.485Z,100919.90
2019-04-07T10:11:54.363Z,100921.36
2019-04-07T10:15:26.282Z,100923.34
2019-04-07T10:18:47.589Z,100925.90
2019-04-07T10:22:09.423Z,100922.05
2019-04-07T10:25:27.058Z,100924.39
2019-04-07T10:28:39.952Z,100922.60
2019-04-07T10:32:07.835Z,100924.89
2019-04-07T10:35:18.926Z,100918.42
2019-04-07T10:38:38.290Z,100918.03
2019-04-07T10:42:00.263Z,100918.58
2019-04-07T10:45:23.577Z,100919.63
2019-04-07T10:48:36.687Z,100916.08
2019-04-07T10:51:48.913Z,100917.52
2019-04-07T10:55:10.929Z,100920.16
2019-04-07T10:58:41.471Z,100912.83
2019-04-07T11:01:55.188Z,100908.27
2019-04-07T11:05:10.512Z,100906.76
2019-04-07T11:08:33.084Z,100902.52
2019-04-07T11:11:48.899Z,100903.78
2019-04-07T11:15:10.303Z,100901.83
2019-04-07T11:18:20.725Z,100902.48
2019-04-07T11:21:34.937Z,100893.78
2019-04-07T11:25:01.086Z,100899.93
2019-04-07T11:28:22.901Z,100895.78
2019-04-07T11:31:38.529Z,100887.73
2019-04-07T11:34:57.305Z,100887.96
2019-04-07T11:38:36.200Z,100894.65
2019-04-07T11:41:48.813Z,100891.02
2019-04-07T11:45:09.341Z,100889.06
2019-04-07T11:48:25.840Z,100885.59
2019-04-07T11:51:35.810Z,100885.82
2019-04-07T11:55:02.143Z,100887.99
2019-04-07T11:58:26.002Z,100887.34
2019-04-07T12:02:00.906Z,100887.30
2019-04-07T12:05:16.998Z,100889.33
2019-04-07T12:08:40.502Z,100886.36
2019-04-07T12:11:52.659Z,100889.97
2019-04-07T12:15:12.044Z,100885.66
2019-04-07T12:18:32.163Z,100884.56
2019-04-07T12:21:48.118Z,100889.09
2019-04-07T12:25:17.066Z,100887.60
2019-04-07T12:28:41.200Z,100889.51
2019-04-07T12:32:08.582Z,100887.28
2019-04-07T12:35:41.594Z,100887.28
2019-04-07T12:39:03.920Z,100883.78
2019-04-07T12:42:18.424Z,100891.70
2019-04-07T12:45:59.469Z,100889.52
2019-04-07T12:49:25.393Z,100885.89
2019-04-07T12:52:35.493Z,100879.64
2019-04-07T12:56:13.437Z,100883.78
2019-04-07T12:59:37.515Z,100886.62
2019-04-07T13:02:59.761Z,100881.09
2019-04-07T13:06:10.758Z,100880.95
2019-04-07T13:09:42.728Z,100881.19
2019-04-07T13:13:18.120Z,100879.53
2019-04-07T13:16:29.550Z,100878.44
2019-04-07T13:19:59.095Z,100878.96
2019-04-07T13:23:19.214Z,100875.57
2019-04-07T13:26:40.895Z,100873.00
2019-04-07T13:30:02.993Z,100878.00
2019-04-07T13:33:29.627Z,100875.38
2019-04-07T13:36:43.838Z,100869.55
2019-04-07T13:39:56.714Z,100869.74
2019-04-07T13:43:12.222Z,100873.19
2019-04-07T13:46:33.323Z,100868.28
2019-04-07T13:50:00.690Z,100870.97
2019-04-07T13:53:37.844Z,100872.23
2019-04-07T13:57:00.173Z,100871.41
2019-04-07T14:00:20.173Z,100866.49
2019-04-07T14:03:33.840Z,100881.59
2019-04-07T14:06:55.580Z,100870.84
2019-04-07T14:10:21.323Z,100868.08
2019-04-07T14:13:39.689Z,100874.03
2019-04-07T14:17:01.196Z,100869.81
2019-04-07T14:20:24.678Z,100870.58
2019-04-07T14:23:57.241Z,100874.23
2019-04-07T14:27:23.755Z,100870.00
2019-04-07T14:30:45.565Z,100868.16
2019-04-07T14:34:11.790Z,100867.13
2019-04-07T14:37:34.087Z,100866.36
2019-04-07T14:41:00.017Z,100870.82
2019-04-07T14:44:12.891Z,100867.09
2019-04-07T14:47:34.957Z,100874.97
2019-04-07T14:51:07.219Z,100865.63
2019-04-07T14:54:29.286Z,100872.17
2019-04-07T14:57:45.913Z,100873.12
2019-04-07T15:01:12.698Z,100876.12
2019-04-07T15:04:16.639Z,100876.20
2019-04-07T15:07:45.114Z,100876.20
2019-04-07T15:10:55.138Z,100872.94
2019-04-07T15:14:00.653Z,100877.39
2019-04-07T15:17:05.565Z,100873.47
2019-04-07T15:20:13.626Z,100866.47
2019-04-07T15:23:15.418Z,100870.67
2019-04-07T15:26:19.388Z,100868.36
2019-04-07T15:29:24.216Z,100865.13
2019-04-07T15:32:29.996Z,100865.84
2019-04-07T15:35:34.173Z,100866.33
2019-04-07T15:38:40.293Z,100860.53
2019-04-07T15:41:44.475Z,100862.67
2019-04-07T15:44:49.256Z,100862.09
2019-04-07T15:47:54.029Z,100870.08
2019-04-07T15:51:00.967Z,100868.55
2019-04-07T15:54:03.577Z,100867.87
2019-04-07T15:57:07.388Z,100868.42
2019-04-07T16:00:12.758Z,100868.61
2019-04-07T16:03:16.976Z,100865.70
2019-04-07T16:06:20.845Z,100864.15
2019-04-07T16:09:36.061Z,100862.12
2019-04-07T16:12:30.903Z,100867.09
2019-04-07T16:15:35.023Z,100865.06
2019-04-07T16:18:40.854Z,100862.85
2019-04-07T16:21:44.380Z,100870.65
2019-04-07T16:24:51.564Z,100871.72
2019-04-07T16:27:54.567Z,100866.78
2019-04-07T16:30:58.579Z,100875.52
2019-04-07T16:34:05.662Z,100873.69
2019-04-07T16:37:08.300Z,100877.80
2019-04-07T16:40:14.147Z,100878.05
2019-04-07T16:43:19.057Z,100874.21
2019-04-07T16:46:24.698Z,100872.70
2019-04-07T16:49:29.148Z,100871.09
2019-04-07T16:52:34.006Z,100882.43
2019-04-07T16:55:41.470Z,100876.59
2019-04-07T16:58:45.650Z,100879.04
2019-04-07T17:01:49.811Z,100874.06
2019-04-07T17:04:54.686Z,100878.05
2019-04-07T17:07:59.480Z,100877.20
2019-04-07T17:11:07.020Z,100878.38
2019-04-07T17:14:09.192Z,100883.14
2019-04-07T17:17:16.429Z,100885.05
2019-04-07T17:20:18.970Z,100884.02
2019-04-07T17:23:24.200Z,100886.79
2019-04-07T17:26:28.367Z,100893.94
2019-04-07T17:29:32.359Z,100892.34
2019-04-07T17:32:37.185Z,100898.42
2019-04-07T17:35:43.255Z,100895.47
2019-04-07T17:39:09.296Z,100899.30
2019-04-07T17:42:13.309Z,100898.14
2019-04-07T17:45:33.339Z,100899.59
2019-04-07T17:49:02.117Z,100899.30
2019-04-07T17:52:15.425Z,100893.44
2019-04-07T17:55:44.215Z,100898.28
2019-04-07T17:59:11.262Z,100904.42
2019-04-07T18:02:33.832Z,100900.95
2019-04-07T18:05:45.369Z,100908.31
2019-04-07T18:09:12.282Z,100907.91
2019-04-07T18:12:22.327Z,100918.21
2019-04-07T18:15:43.449Z,100919.52
2019-04-07T18:19:21.622Z,100922.56
2019-04-07T18:22:47.706Z,100921.91
2019-04-07T18:25:59.396Z,100930.48
2019-04-07T18:29:25.668Z,100932.58
2019-04-07T18:32:41.761Z,100935.07
2019-04-07T18:36:19.181Z,100936.09
2019-04-07T18:39:43.093Z,100943.34
2019-04-07T18:43:02.172Z,100939.02
2019-04-07T18:46:31.432Z,100949.53
2019-04-07T18:50:12.447Z,100950.31
2019-04-07T18:53:45.364Z,100958.20
2019-04-07T18:57:04.308Z,100972.03
2019-04-07T19:00:30.180Z,100972.19
2019-04-07T19:04:00.265Z,100976.67
2019-04-07T19:07:30.893Z,100974.44
2019-04-07T19:10:45.433Z,100978.42
2019-04-07T19:14:20.392Z,100979.89
2019-04-07T19:17:24.054Z,100994.00
2019-04-07T19:20:43.840Z,100985.91
2019-04-07T19:23:59.081Z,100988.45
2019-04-07T19:27:37.386Z,100994.08
2019-04-07T19:30:50.113Z,100998.57
2019-04-07T19:34:09.968Z,101002.55
2019-04-07T19:37:22.961Z,101000.59
2019-04-07T19:40:48.357Z,101004.05
2019-04-07T19:44:33.482Z,101007.59
2019-04-07T19:47:53.668Z,101008.08
2019-04-07T19:51:07.306Z,101001.80
2019-04-07T19:54:31.475Z,101011.41
2019-04-07T19:57:50.835Z,101008.49
2019-04-07T20:01:14.886Z,101011.37
2019-04-07T20:04:44.157Z,101009.83
2019-04-07T20:08:05.950Z,101006.50
2019-04-07T20:11:22.175Z,101018.31
2019-04-07T20:14:58.555Z,101012.19
2019-04-07T20:18:08.602Z,101011.51
2019-04-07T20:21:40.142Z,101013.73
2019-04-07T20:25:09.735Z,101010.81
2019-04-07T20:28:46.472Z,101010.27
2019-04-07T20:32:21.365Z,101017.48
2019-04-07T20:35:31.501Z,101014.34
2019-04-07T20:38:51.158Z,101021.96
2019-04-07T20:42:03.039Z,101024.95
2019-04-07T20:45:24.085Z,101031.39
2019-04-07T20:48:45.709Z,101025.97
2019-04-07T20:52:15.795Z,101035.93
2019-04-07T20:55:36.704Z,101020.13
2019-04-07T20:59:04.781Z,101027.61
2019-04-07T21:02:14.481Z,101030.14
2019-04-07T21:05:35.775Z,101034.78
2019-04-07T21:08:47.613Z,101034.87
2019-04-07T21:12:06.298Z,101038.28
2019-04-07T21:15:30.478Z,101046.45
2019-04-07T21:18:53.206Z,101041.89
2019-04-07T21:22:12.383Z,101045.45
2019-04-07T21:25:37.087Z,101048.02
2019-04-07T21:28:54.561Z,101047.90
2019-04-07T21:32:35.544Z,101046.28
2019-04-07T21:36:16.720Z,101047.56
2019-04-07T21:39:38.459Z,101053.42
2019-04-07T21:43:07.164Z,101056.30
2019-04-07T21:46:48.455Z,101058.54
2019-04-07T21:50:26.323Z,101059.09
2019-04-07T21:53:34.693Z,101058.55
2019-04-07T21:56:47.651Z,101061.05
2019-04-07T22:00:01.234Z,101056.97
2019-04-07T22:03:16.746Z,101057.84
2019-04-07T22:06:49.535Z,101068.03
2019-04-07T22:09:56.843Z,101071.28
2019-04-07T22:13:04.106Z,101073.34
2019-04-07T22:16:06.285Z,101073.48
2019-04-07T22:19:12.769Z,101077.72
2019-04-07T22:22:16.412Z,101077.98
2019-04-07T22:25:32.691Z,101081.02
2019-04-07T22:28:41.494Z,101075.13
2019-04-07T22:31:51.529Z,101081.88
2019-04-07T22:34:57.925Z,101080.94
2019-04-07T22:38:03.483Z,101078.30
2019-04-07T22:41:09.199Z,101085.94
2019-04-07T22:44:15.537Z,101077.50
2019-04-07T22:47:22.031Z,101074.28
2019-04-07T22:50:30.508Z,101078.27
2019-04-07T22:53:45.468Z,101070.38
2019-04-07T22:56:50.640Z,101073.95
2019-04-07T22:59:55.197Z,101070.41
2019-04-07T23:02:59.683Z,101070.72
2019-04-07T23:06:07.160Z,101069.75
2019-04-07T23:09:12.167Z,101074.37
2019-04-07T23:12:17.478Z,101076.67
2019-04-07T23:15:22.861Z,101079.75
2019-04-07T23:18:27.677Z,101080.09
2019-04-07T23:21:32.932Z,101074.95
2019-04-07T23:24:37.787Z,101077.03
2019-04-07T23:27:44.152Z,101079.27
2019-04-07T23:30:51.605Z,101077.61
2019-04-07T23:33:56.670Z,101079.14
2019-04-07T23:37:15.100Z,101074.45
2019-04-07T23:40:19.566Z,101071.45
2019-04-07T23:43:23.881Z,101078.02
2019-04-07T23:46:28.532Z,101071.67
2019-04-07T23:49:34.208Z,101080.89
2019-04-07T23:52:39.530Z,101068.48
2019-04-07T23:55:46.364Z,101076.41
2019-04-07T23:58:50.676Z,101073.48
